Portada
METAR-TAF:

METAR-TAF

Aeroports :

Qurghonteppa, Tadjikistan

latitud: 37-51-44N, longitud: 068-51-46E, altitud: 449 m

Observació

L'informe es va fer fa 38 minuts, a les 09:30 UTC
Vent 10 kt del Nord/Nord-Est, variant entre Nord i Nord-Est
Temperatura 24°C
Humitat 34%
Pressió 1008 hPa
Visibilitat 10 km o més
Núvols disperses a una alçada de 12000 ft

METAR: UTDT 300930Z 02005MPS 350V050 9999 SCT120 24/07 Q1008 R35/CLRD70 RMK QFE717/0956

Hora: 15:08 (10:08 UTC)

Pronòstic

L'informe es va fer fa 1 hora i 8 minuts, a les 09:00 UTC
Pronòstic vàlid del 30 a les 10 UTC al 30 a les 19 UTC
Vent 4 kt amb direcció variable
Visibilitat: 6000 m
Núvols disperses a una alçada de 5000 ft, Cumulonimbus.
Cel ennuvolat a una alçada de 9000 ft
Probabilitat 40% :
Temporalment
l' 30 a les 10 UTC al 30 a les 19 UTC
Vent 16 kt amb direcció variable
Visibilitat: 3100 m
tempesta, pluja, boirina

TAF: UTDT 300900Z 3010/3019 VRB02MPS 6000 SCT050CB BKN090 PROB40 TEMPO 3010/3019 VRB08MPS 3100 -TSRA BR

Observacions i pronòstics meteorològics de més de 4000 aeroports (METAR i TAF).

Les estacions disponibles són els punts grocs i vermells al mapa.

Posi el ratolí al punt desitjat per veure el nom de l'estació.

Feu clic per veure les observacions i els pronòstics meteorològics.

Per canviar el mapa: feu clic els botons verds amb una creu de color negre per apropar; al botó verd amb un guió per allunyar la imatge; o en les fletxes verdes per a mapes adjacents.


METAR-TAF: